Terminal Aerodrome Forecast
Issued by NWS Omaha/Valley, NE

Home | Current Version | Previous Version | Text Only | Print | Product List | Glossary On
Versions: 1 2 3 4 5 6 7 8 9 10 11 12 13 14 15
000
FTUS43 KOAX 230015 AAA
TAFOMA
TAF AMD
KOMA 230015Z 2300/2324 35008KT P6SM VCTS FEW050CB BKN090
     FM230100 36012G20KT P6SM VCTS FEW050CB BKN080
     FM230400 35012KT P6SM BKN070
     FM230700 35008KT P6SM SCT100
     FM231400 33012G20KT P6SM BKN100=

USA.gov is the U.S. government's official web portal to all federal, state and local government web resources and services.